sensor_id;sensor_type;location;lat;lon;timestamp;temperature;humidity
25933;DHT22;13731;51.166;4.474;2023-12-07T00:01:57;1.80;99.90
25933;DHT22;13731;51.166;4.474;2023-12-07T00:04:23;1.80;99.90
25933;DHT22;13731;51.166;4.474;2023-12-07T00:06:49;1.90;99.90
25933;DHT22;13731;51.166;4.474;2023-12-07T00:09:15;1.90;99.90
25933;DHT22;13731;51.166;4.474;2023-12-07T00:11:41;2.00;99.90
25933;DHT22;13731;51.166;4.474;2023-12-07T00:14:07;2.00;99.90
25933;DHT22;13731;51.166;4.474;2023-12-07T00:16:33;2.00;99.90
25933;DHT22;13731;51.166;4.474;2023-12-07T00:18:59;1.90;99.90
25933;DHT22;13731;51.166;4.474;2023-12-07T00:21:25;2.00;99.90
25933;DHT22;13731;51.166;4.474;2023-12-07T00:23:51;2.10;99.90
25933;DHT22;13731;51.166;4.474;2023-12-07T00:26:17;2.10;99.90
25933;DHT22;13731;51.166;4.474;2023-12-07T00:28:45;2.20;99.90
25933;DHT22;13731;51.166;4.474;2023-12-07T00:31:11;2.40;99.90
25933;DHT22;13731;51.166;4.474;2023-12-07T00:33:38;2.50;99.90
25933;DHT22;13731;51.166;4.474;2023-12-07T00:36:04;2.50;99.90
25933;DHT22;13731;51.166;4.474;2023-12-07T00:38:30;2.50;99.90
25933;DHT22;13731;51.166;4.474;2023-12-07T00:40:58;2.40;99.90
25933;DHT22;13731;51.166;4.474;2023-12-07T00:43:24;2.30;99.90
25933;DHT22;13731;51.166;4.474;2023-12-07T00:45:49;2.50;99.90
25933;DHT22;13731;51.166;4.474;2023-12-07T00:48:15;2.60;99.90
25933;DHT22;13731;51.166;4.474;2023-12-07T00:50:41;2.50;99.90
25933;DHT22;13731;51.166;4.474;2023-12-07T00:53:07;2.50;99.90
25933;DHT22;13731;51.166;4.474;2023-12-07T00:55:34;2.60;99.90
25933;DHT22;13731;51.166;4.474;2023-12-07T00:58:00;2.50;99.90
25933;DHT22;13731;51.166;4.474;2023-12-07T01:00:27;2.60;99.90
25933;DHT22;13731;51.166;4.474;2023-12-07T01:02:53;2.70;99.90
25933;DHT22;13731;51.166;4.474;2023-12-07T01:05:19;2.70;99.90
25933;DHT22;13731;51.166;4.474;2023-12-07T01:07:45;2.70;99.90
25933;DHT22;13731;51.166;4.474;2023-12-07T01:10:11;2.80;99.90
25933;DHT22;13731;51.166;4.474;2023-12-07T01:12:37;2.80;99.90
25933;DHT22;13731;51.166;4.474;2023-12-07T01:15:04;2.90;99.90
25933;DHT22;13731;51.166;4.474;2023-12-07T01:17:30;3.00;99.90
25933;DHT22;13731;51.166;4.474;2023-12-07T01:19:56;3.00;99.90
25933;DHT22;13731;51.166;4.474;2023-12-07T01:22:23;3.00;99.90
25933;DHT22;13731;51.166;4.474;2023-12-07T01:24:49;3.00;99.90
25933;DHT22;13731;51.166;4.474;2023-12-07T01:27:15;2.90;99.90
25933;DHT22;13731;51.166;4.474;2023-12-07T01:29:41;3.00;99.90
25933;DHT22;13731;51.166;4.474;2023-12-07T01:32:07;3.00;99.90
25933;DHT22;13731;51.166;4.474;2023-12-07T01:34:34;3.10;99.90
25933;DHT22;13731;51.166;4.474;2023-12-07T01:37:02;3.00;99.90
25933;DHT22;13731;51.166;4.474;2023-12-07T01:39:28;3.00;99.90
25933;DHT22;13731;51.166;4.474;2023-12-07T01:41:54;2.90;99.90
25933;DHT22;13731;51.166;4.474;2023-12-07T01:44:20;2.80;99.90
25933;DHT22;13731;51.166;4.474;2023-12-07T01:46:47;2.80;99.90
25933;DHT22;13731;51.166;4.474;2023-12-07T01:49:14;2.70;99.90
25933;DHT22;13731;51.166;4.474;2023-12-07T01:51:40;2.70;99.90
25933;DHT22;13731;51.166;4.474;2023-12-07T01:54:06;2.60;99.90
25933;DHT22;13731;51.166;4.474;2023-12-07T01:56:32;2.70;99.90
25933;DHT22;13731;51.166;4.474;2023-12-07T01:58:58;2.70;99.90
25933;DHT22;13731;51.166;4.474;2023-12-07T02:01:24;2.60;99.90
25933;DHT22;13731;51.166;4.474;2023-12-07T02:03:50;2.80;99.90
25933;DHT22;13731;51.166;4.474;2023-12-07T02:06:16;2.80;99.90
25933;DHT22;13731;51.166;4.474;2023-12-07T02:08:43;2.80;99.90
25933;DHT22;13731;51.166;4.474;2023-12-07T02:11:10;2.60;99.90
25933;DHT22;13731;51.166;4.474;2023-12-07T02:13:40;2.70;99.90
25933;DHT22;13731;51.166;4.474;2023-12-07T02:16:30;2.70;99.90
25933;DHT22;13731;51.166;4.474;2023-12-07T02:21:42;2.70;99.90
25933;DHT22;13731;51.166;4.474;2023-12-07T02:24:11;2.70;99.90
25933;DHT22;13731;51.166;4.474;2023-12-07T02:26:40;2.70;99.90
25933;DHT22;13731;51.166;4.474;2023-12-07T02:29:06;2.70;99.90
25933;DHT22;13731;51.166;4.474;2023-12-07T02:31:32;2.70;99.90
25933;DHT22;13731;51.166;4.474;2023-12-07T02:33:59;2.80;99.90
25933;DHT22;13731;51.166;4.474;2023-12-07T02:36:28;2.90;99.90
25933;DHT22;13731;51.166;4.474;2023-12-07T02:38:59;2.90;99.90
25933;DHT22;13731;51.166;4.474;2023-12-07T02:41:31;2.90;99.90
25933;DHT22;13731;51.166;4.474;2023-12-07T02:43:57;3.00;99.90
25933;DHT22;13731;51.166;4.474;2023-12-07T02:46:25;2.90;99.90
25933;DHT22;13731;51.166;4.474;2023-12-07T02:48:51;2.90;99.90
25933;DHT22;13731;51.166;4.474;2023-12-07T02:51:17;2.90;99.90
25933;DHT22;13731;51.166;4.474;2023-12-07T02:53:44;2.90;99.90
25933;DHT22;13731;51.166;4.474;2023-12-07T02:56:10;3.00;99.90
25933;DHT22;13731;51.166;4.474;2023-12-07T02:58:36;3.00;99.90
25933;DHT22;13731;51.166;4.474;2023-12-07T03:01:02;3.00;99.90
25933;DHT22;13731;51.166;4.474;2023-12-07T03:03:28;2.90;99.90
25933;DHT22;13731;51.166;4.474;2023-12-07T03:05:54;3.00;99.90
25933;DHT22;13731;51.166;4.474;2023-12-07T03:08:20;3.00;99.90
25933;DHT22;13731;51.166;4.474;2023-12-07T03:10:47;3.00;99.90
25933;DHT22;13731;51.166;4.474;2023-12-07T03:13:13;2.90;99.90
25933;DHT22;13731;51.166;4.474;2023-12-07T03:15:39;2.90;99.90
25933;DHT22;13731;51.166;4.474;2023-12-07T03:18:07;2.80;99.90
25933;DHT22;13731;51.166;4.474;2023-12-07T03:20:33;2.80;99.90
25933;DHT22;13731;51.166;4.474;2023-12-07T03:22:59;2.90;99.90
25933;DHT22;13731;51.166;4.474;2023-12-07T03:25:25;3.00;99.90
25933;DHT22;13731;51.166;4.474;2023-12-07T03:27:52;3.00;99.90
25933;DHT22;13731;51.166;4.474;2023-12-07T03:30:18;3.00;99.90
25933;DHT22;13731;51.166;4.474;2023-12-07T03:32:43;2.90;99.90
25933;DHT22;13731;51.166;4.474;2023-12-07T03:35:09;2.90;99.90
25933;DHT22;13731;51.166;4.474;2023-12-07T03:37:35;2.90;99.90
25933;DHT22;13731;51.166;4.474;2023-12-07T03:40:01;3.00;99.90
25933;DHT22;13731;51.166;4.474;2023-12-07T03:42:29;3.10;99.90
25933;DHT22;13731;51.166;4.474;2023-12-07T03:44:56;3.00;99.90
25933;DHT22;13731;51.166;4.474;2023-12-07T03:47:22;3.00;99.90
25933;DHT22;13731;51.166;4.474;2023-12-07T03:49:48;3.00;99.90
25933;DHT22;13731;51.166;4.474;2023-12-07T03:52:13;3.10;99.90
25933;DHT22;13731;51.166;4.474;2023-12-07T03:54:39;3.10;99.90
25933;DHT22;13731;51.166;4.474;2023-12-07T03:57:05;3.00;99.90
25933;DHT22;13731;51.166;4.474;2023-12-07T03:59:31;3.00;99.90
25933;DHT22;13731;51.166;4.474;2023-12-07T04:01:57;3.10;99.90
25933;DHT22;13731;51.166;4.474;2023-12-07T04:04:23;3.10;99.90
25933;DHT22;13731;51.166;4.474;2023-12-07T04:06:49;3.10;99.90
25933;DHT22;13731;51.166;4.474;2023-12-07T04:09:15;3.10;99.90
25933;DHT22;13731;51.166;4.474;2023-12-07T04:11:40;3.00;99.90
25933;DHT22;13731;51.166;4.474;2023-12-07T04:14:06;3.00;99.90
25933;DHT22;13731;51.166;4.474;2023-12-07T04:16:32;3.00;99.90
25933;DHT22;13731;51.166;4.474;2023-12-07T04:18:58;3.00;99.90
25933;DHT22;13731;51.166;4.474;2023-12-07T04:21:24;3.10;99.90
25933;DHT22;13731;51.166;4.474;2023-12-07T04:23:50;3.10;99.90
25933;DHT22;13731;51.166;4.474;2023-12-07T04:26:16;3.00;99.90
25933;DHT22;13731;51.166;4.474;2023-12-07T04:28:42;3.00;99.90
25933;DHT22;13731;51.166;4.474;2023-12-07T04:31:07;3.00;99.90
25933;DHT22;13731;51.166;4.474;2023-12-07T04:33:33;3.00;99.90
25933;DHT22;13731;51.166;4.474;2023-12-07T04:35:59;3.00;99.90
25933;DHT22;13731;51.166;4.474;2023-12-07T04:38:25;2.90;99.90
25933;DHT22;13731;51.166;4.474;2023-12-07T04:40:50;2.90;99.90
25933;DHT22;13731;51.166;4.474;2023-12-07T04:43:16;2.80;99.90
25933;DHT22;13731;51.166;4.474;2023-12-07T04:45:42;2.90;99.90
25933;DHT22;13731;51.166;4.474;2023-12-07T04:48:08;2.90;99.90
25933;DHT22;13731;51.166;4.474;2023-12-07T04:50:34;2.90;99.90
25933;DHT22;13731;51.166;4.474;2023-12-07T04:53:00;2.90;99.90
25933;DHT22;13731;51.166;4.474;2023-12-07T04:55:28;3.00;99.90
25933;DHT22;13731;51.166;4.474;2023-12-07T04:57:54;3.00;99.90
25933;DHT22;13731;51.166;4.474;2023-12-07T05:00:20;2.90;99.90
25933;DHT22;13731;51.166;4.474;2023-12-07T05:02:47;2.80;99.90
25933;DHT22;13731;51.166;4.474;2023-12-07T05:05:13;2.90;99.90
25933;DHT22;13731;51.166;4.474;2023-12-07T05:07:40;2.90;99.90
25933;DHT22;13731;51.166;4.474;2023-12-07T05:10:06;2.90;99.90
25933;DHT22;13731;51.166;4.474;2023-12-07T05:12:32;3.20;99.90
25933;DHT22;13731;51.166;4.474;2023-12-07T05:14:58;3.40;99.90
25933;DHT22;13731;51.166;4.474;2023-12-07T05:17:24;3.60;99.90
25933;DHT22;13731;51.166;4.474;2023-12-07T05:19:50;3.50;99.90
25933;DHT22;13731;51.166;4.474;2023-12-07T05:22:16;3.40;99.90
25933;DHT22;13731;51.166;4.474;2023-12-07T05:24:42;3.30;99.90
25933;DHT22;13731;51.166;4.474;2023-12-07T05:27:07;3.10;99.90
25933;DHT22;13731;51.166;4.474;2023-12-07T05:29:33;3.10;99.90
25933;DHT22;13731;51.166;4.474;2023-12-07T05:32:02;3.10;99.90
25933;DHT22;13731;51.166;4.474;2023-12-07T05:34:29;3.10;99.90
25933;DHT22;13731;51.166;4.474;2023-12-07T05:36:55;3.10;99.90
25933;DHT22;13731;51.166;4.474;2023-12-07T05:39:21;3.20;99.90
25933;DHT22;13731;51.166;4.474;2023-12-07T05:41:47;3.10;99.90
25933;DHT22;13731;51.166;4.474;2023-12-07T05:44:13;3.00;99.90
25933;DHT22;13731;51.166;4.474;2023-12-07T05:46:39;2.90;99.90
25933;DHT22;13731;51.166;4.474;2023-12-07T05:49:09;3.00;99.90
25933;DHT22;13731;51.166;4.474;2023-12-07T05:51:35;3.00;99.90
25933;DHT22;13731;51.166;4.474;2023-12-07T05:54:01;3.00;99.90
25933;DHT22;13731;51.166;4.474;2023-12-07T05:56:28;3.00;99.90
25933;DHT22;13731;51.166;4.474;2023-12-07T05:58:54;3.10;99.90
25933;DHT22;13731;51.166;4.474;2023-12-07T06:01:20;3.10;99.90
25933;DHT22;13731;51.166;4.474;2023-12-07T06:03:46;3.10;99.90
25933;DHT22;13731;51.166;4.474;2023-12-07T06:06:12;3.30;99.90
25933;DHT22;13731;51.166;4.474;2023-12-07T06:08:39;3.30;99.90
25933;DHT22;13731;51.166;4.474;2023-12-07T06:11:05;3.10;99.90
25933;DHT22;13731;51.166;4.474;2023-12-07T06:13:31;3.30;99.90
25933;DHT22;13731;51.166;4.474;2023-12-07T06:15:57;3.30;99.90
25933;DHT22;13731;51.166;4.474;2023-12-07T06:18:23;3.20;99.90
25933;DHT22;13731;51.166;4.474;2023-12-07T06:20:50;3.20;99.90
25933;DHT22;13731;51.166;4.474;2023-12-07T06:23:16;3.10;99.90
25933;DHT22;13731;51.166;4.474;2023-12-07T06:25:42;3.10;99.90
25933;DHT22;13731;51.166;4.474;2023-12-07T06:28:08;3.10;99.90
25933;DHT22;13731;51.166;4.474;2023-12-07T06:30:34;3.10;99.90
25933;DHT22;13731;51.166;4.474;2023-12-07T06:33:00;3.10;99.90
25933;DHT22;13731;51.166;4.474;2023-12-07T06:35:26;3.10;99.90
25933;DHT22;13731;51.166;4.474;2023-12-07T06:37:52;3.10;99.90
25933;DHT22;13731;51.166;4.474;2023-12-07T06:40:20;3.20;99.90
25933;DHT22;13731;51.166;4.474;2023-12-07T06:42:46;3.30;99.90
25933;DHT22;13731;51.166;4.474;2023-12-07T06:45:13;3.30;99.90
25933;DHT22;13731;51.166;4.474;2023-12-07T06:47:40;3.40;99.90
25933;DHT22;13731;51.166;4.474;2023-12-07T06:50:08;3.20;99.90
25933;DHT22;13731;51.166;4.474;2023-12-07T06:52:39;3.20;99.90
25933;DHT22;13731;51.166;4.474;2023-12-07T06:55:05;3.20;99.90
25933;DHT22;13731;51.166;4.474;2023-12-07T06:57:32;3.20;99.90
25933;DHT22;13731;51.166;4.474;2023-12-07T06:59:59;3.30;99.90
25933;DHT22;13731;51.166;4.474;2023-12-07T07:02:24;3.30;99.90
25933;DHT22;13731;51.166;4.474;2023-12-07T07:04:51;3.40;99.90
25933;DHT22;13731;51.166;4.474;2023-12-07T07:07:17;3.50;99.90
25933;DHT22;13731;51.166;4.474;2023-12-07T07:09:43;3.60;99.90
25933;DHT22;13731;51.166;4.474;2023-12-07T07:12:09;3.60;99.90
25933;DHT22;13731;51.166;4.474;2023-12-07T07:14:36;3.60;99.90
25933;DHT22;13731;51.166;4.474;2023-12-07T07:17:02;3.50;99.90
25933;DHT22;13731;51.166;4.474;2023-12-07T07:19:30;3.40;99.90
25933;DHT22;13731;51.166;4.474;2023-12-07T07:21:57;3.50;99.90
25933;DHT22;13731;51.166;4.474;2023-12-07T07:24:23;3.50;99.90
25933;DHT22;13731;51.166;4.474;2023-12-07T07:26:49;3.60;99.90
25933;DHT22;13731;51.166;4.474;2023-12-07T07:29:15;3.50;99.90
25933;DHT22;13731;51.166;4.474;2023-12-07T07:31:41;3.40;99.90
25933;DHT22;13731;51.166;4.474;2023-12-07T07:34:07;3.40;99.90
25933;DHT22;13731;51.166;4.474;2023-12-07T07:36:33;3.30;99.90
25933;DHT22;13731;51.166;4.474;2023-12-07T07:38:59;3.30;99.90
25933;DHT22;13731;51.166;4.474;2023-12-07T07:41:26;3.30;99.90
25933;DHT22;13731;51.166;4.474;2023-12-07T07:43:52;3.10;99.90
25933;DHT22;13731;51.166;4.474;2023-12-07T07:46:18;3.10;99.90
25933;DHT22;13731;51.166;4.474;2023-12-07T07:48:44;3.20;99.90
25933;DHT22;13731;51.166;4.474;2023-12-07T07:51:10;3.20;99.90
25933;DHT22;13731;51.166;4.474;2023-12-07T07:53:36;3.20;99.90
25933;DHT22;13731;51.166;4.474;2023-12-07T07:56:01;3.20;99.90
25933;DHT22;13731;51.166;4.474;2023-12-07T07:58:27;3.10;99.90
25933;DHT22;13731;51.166;4.474;2023-12-07T08:00:54;3.10;99.90
25933;DHT22;13731;51.166;4.474;2023-12-07T08:03:20;3.00;99.90
25933;DHT22;13731;51.166;4.474;2023-12-07T08:05:46;3.20;99.90
25933;DHT22;13731;51.166;4.474;2023-12-07T08:08:12;3.20;99.90
25933;DHT22;13731;51.166;4.474;2023-12-07T08:10:38;3.20;99.90
25933;DHT22;13731;51.166;4.474;2023-12-07T08:13:06;3.10;99.90
25933;DHT22;13731;51.166;4.474;2023-12-07T08:15:34;3.20;99.90
25933;DHT22;13731;51.166;4.474;2023-12-07T08:18:00;3.30;99.90
25933;DHT22;13731;51.166;4.474;2023-12-07T08:20:26;3.40;99.90
25933;DHT22;13731;51.166;4.474;2023-12-07T08:22:52;3.20;99.90
25933;DHT22;13731;51.166;4.474;2023-12-07T08:25:18;3.30;99.90
25933;DHT22;13731;51.166;4.474;2023-12-07T08:27:44;3.30;99.90
25933;DHT22;13731;51.166;4.474;2023-12-07T08:30:12;3.30;99.90
25933;DHT22;13731;51.166;4.474;2023-12-07T08:32:38;3.20;99.90
25933;DHT22;13731;51.166;4.474;2023-12-07T08:35:05;3.20;99.90
25933;DHT22;13731;51.166;4.474;2023-12-07T08:37:32;3.30;99.90
25933;DHT22;13731;51.166;4.474;2023-12-07T08:39:59;3.50;99.90
25933;DHT22;13731;51.166;4.474;2023-12-07T08:42:25;3.50;99.90
25933;DHT22;13731;51.166;4.474;2023-12-07T08:44:53;3.40;99.90
25933;DHT22;13731;51.166;4.474;2023-12-07T08:47:19;3.30;99.90
25933;DHT22;13731;51.166;4.474;2023-12-07T08:49:45;3.50;99.90
25933;DHT22;13731;51.166;4.474;2023-12-07T08:52:12;3.60;99.90
25933;DHT22;13731;51.166;4.474;2023-12-07T08:54:38;3.50;99.90
25933;DHT22;13731;51.166;4.474;2023-12-07T08:57:04;3.70;99.90
25933;DHT22;13731;51.166;4.474;2023-12-07T08:59:29;3.80;99.90
25933;DHT22;13731;51.166;4.474;2023-12-07T09:01:58;3.80;99.90
25933;DHT22;13731;51.166;4.474;2023-12-07T09:04:24;3.80;99.90
25933;DHT22;13731;51.166;4.474;2023-12-07T09:06:50;3.80;99.90
25933;DHT22;13731;51.166;4.474;2023-12-07T09:09:16;3.80;99.90
25933;DHT22;13731;51.166;4.474;2023-12-07T09:11:42;4.00;99.90
25933;DHT22;13731;51.166;4.474;2023-12-07T09:14:09;4.00;99.90
25933;DHT22;13731;51.166;4.474;2023-12-07T09:16:45;4.20;99.90
25933;DHT22;13731;51.166;4.474;2023-12-07T09:19:13;4.10;99.90
25933;DHT22;13731;51.166;4.474;2023-12-07T09:21:40;4.20;99.90
25933;DHT22;13731;51.166;4.474;2023-12-07T09:24:07;4.30;99.90
25933;DHT22;13731;51.166;4.474;2023-12-07T09:26:33;4.60;99.90
25933;DHT22;13731;51.166;4.474;2023-12-07T09:28:59;4.60;99.90
25933;DHT22;13731;51.166;4.474;2023-12-07T09:31:27;4.60;99.90
25933;DHT22;13731;51.166;4.474;2023-12-07T09:33:53;4.80;99.90
25933;DHT22;13731;51.166;4.474;2023-12-07T09:36:20;5.00;99.90
25933;DHT22;13731;51.166;4.474;2023-12-07T09:38:49;5.00;99.90
25933;DHT22;13731;51.166;4.474;2023-12-07T09:41:16;5.10;99.90
25933;DHT22;13731;51.166;4.474;2023-12-07T09:43:42;5.30;99.90
25933;DHT22;13731;51.166;4.474;2023-12-07T09:46:08;5.50;99.90
25933;DHT22;13731;51.166;4.474;2023-12-07T09:48:37;5.70;99.90
25933;DHT22;13731;51.166;4.474;2023-12-07T09:51:04;5.80;99.90
25933;DHT22;13731;51.166;4.474;2023-12-07T09:53:33;5.40;99.90
25933;DHT22;13731;51.166;4.474;2023-12-07T09:56:00;5.30;65.10
25933;DHT22;13731;51.166;4.474;2023-12-07T09:58:27;5.00;99.90
25933;DHT22;13731;51.166;4.474;2023-12-07T10:00:53;4.90;1.00
25933;DHT22;13731;51.166;4.474;2023-12-07T10:03:22;4.90;1.00
25933;DHT22;13731;51.166;4.474;2023-12-07T10:05:58;5.00;1.00
25933;DHT22;13731;51.166;4.474;2023-12-07T10:08:29;4.80;99.90
25933;DHT22;13731;51.166;4.474;2023-12-07T10:11:09;4.90;99.90
25933;DHT22;13731;51.166;4.474;2023-12-07T10:13:37;4.80;1.00
25933;DHT22;13731;51.166;4.474;2023-12-07T10:16:10;5.10;99.90
25933;DHT22;13731;51.166;4.474;2023-12-07T10:18:37;5.10;99.90
25933;DHT22;13731;51.166;4.474;2023-12-07T10:21:05;5.20;1.00
25933;DHT22;13731;51.166;4.474;2023-12-07T10:23:32;5.10;1.00
25933;DHT22;13731;51.166;4.474;2023-12-07T10:25:58;5.40;99.90
25933;DHT22;13731;51.166;4.474;2023-12-07T10:28:26;5.70;99.90
25933;DHT22;13731;51.166;4.474;2023-12-07T10:30:52;5.80;17.60
25933;DHT22;13731;51.166;4.474;2023-12-07T10:33:20;5.80;1.00
25933;DHT22;13731;51.166;4.474;2023-12-07T10:35:47;6.00;99.90
25933;DHT22;13731;51.166;4.474;2023-12-07T10:38:16;5.80;99.90
25933;DHT22;13731;51.166;4.474;2023-12-07T10:40:43;5.70;99.90
25933;DHT22;13731;51.166;4.474;2023-12-07T10:43:09;5.90;99.90
25933;DHT22;13731;51.166;4.474;2023-12-07T10:45:36;5.70;99.90
25933;DHT22;13731;51.166;4.474;2023-12-07T10:48:08;5.90;1.00
25933;DHT22;13731;51.166;4.474;2023-12-07T10:50:42;6.30;99.90
25933;DHT22;13731;51.166;4.474;2023-12-07T10:53:21;6.50;1.00
25933;DHT22;13731;51.166;4.474;2023-12-07T10:55:55;6.80;99.90
25933;DHT22;13731;51.166;4.474;2023-12-07T10:58:22;6.70;1.00
25933;DHT22;13731;51.166;4.474;2023-12-07T11:00:52;7.10;99.90
25933;DHT22;13731;51.166;4.474;2023-12-07T11:03:18;7.00;99.90
25933;DHT22;13731;51.166;4.474;2023-12-07T11:05:47;7.00;99.90
25933;DHT22;13731;51.166;4.474;2023-12-07T11:08:28;6.70;99.90
25933;DHT22;13731;51.166;4.474;2023-12-07T11:11:46;6.90;99.90
25933;DHT22;13731;51.166;4.474;2023-12-07T11:14:16;6.60;99.90
25933;DHT22;13731;51.166;4.474;2023-12-07T11:16:43;6.70;1.00
25933;DHT22;13731;51.166;4.474;2023-12-07T11:21:58;6.40;99.90
25933;DHT22;13731;51.166;4.474;2023-12-07T11:24:25;6.70;99.90
25933;DHT22;13731;51.166;4.474;2023-12-07T11:26:55;7.00;99.90
25933;DHT22;13731;51.166;4.474;2023-12-07T11:29:23;7.30;99.90
25933;DHT22;13731;51.166;4.474;2023-12-07T11:31:50;7.70;1.00
25933;DHT22;13731;51.166;4.474;2023-12-07T11:34:58;7.40;1.00
25933;DHT22;13731;51.166;4.474;2023-12-07T11:38:05;7.90;1.00
25933;DHT22;13731;51.166;4.474;2023-12-07T11:40:39;8.00;1.00
25933;DHT22;13731;51.166;4.474;2023-12-07T11:43:06;8.00;1.00
25933;DHT22;13731;51.166;4.474;2023-12-07T11:45:42;8.30;1.00
25933;DHT22;13731;51.166;4.474;2023-12-07T11:48:13;8.10;1.00
25933;DHT22;13731;51.166;4.474;2023-12-07T11:51:07;8.50;1.00
25933;DHT22;13731;51.166;4.474;2023-12-07T11:53:34;8.40;1.00
25933;DHT22;13731;51.166;4.474;2023-12-07T11:56:06;8.80;1.00
25933;DHT22;13731;51.166;4.474;2023-12-07T11:58:34;8.90;99.90
25933;DHT22;13731;51.166;4.474;2023-12-07T12:01:01;9.30;99.90
25933;DHT22;13731;51.166;4.474;2023-12-07T12:03:28;9.60;99.90
25933;DHT22;13731;51.166;4.474;2023-12-07T12:05:55;9.30;99.90
25933;DHT22;13731;51.166;4.474;2023-12-07T12:08:22;9.10;99.90
25933;DHT22;13731;51.166;4.474;2023-12-07T12:10:50;9.20;99.90
25933;DHT22;13731;51.166;4.474;2023-12-07T12:13:18;8.90;99.90
25933;DHT22;13731;51.166;4.474;2023-12-07T12:15:45;8.90;99.90
25933;DHT22;13731;51.166;4.474;2023-12-07T12:18:14;9.00;99.90
25933;DHT22;13731;51.166;4.474;2023-12-07T12:20:43;8.80;99.90
25933;DHT22;13731;51.166;4.474;2023-12-07T12:23:10;8.50;99.90
25933;DHT22;13731;51.166;4.474;2023-12-07T12:25:36;8.00;1.00
25933;DHT22;13731;51.166;4.474;2023-12-07T12:28:03;8.00;1.00
25933;DHT22;13731;51.166;4.474;2023-12-07T12:30:30;7.90;1.00
25933;DHT22;13731;51.166;4.474;2023-12-07T12:32:57;7.50;1.00
25933;DHT22;13731;51.166;4.474;2023-12-07T12:35:23;7.20;1.00
25933;DHT22;13731;51.166;4.474;2023-12-07T12:37:50;7.10;1.00
25933;DHT22;13731;51.166;4.474;2023-12-07T12:40:20;7.10;1.00
25933;DHT22;13731;51.166;4.474;2023-12-07T12:42:48;7.10;1.00
25933;DHT22;13731;51.166;4.474;2023-12-07T12:45:15;6.90;1.00
25933;DHT22;13731;51.166;4.474;2023-12-07T12:47:42;7.00;1.00
25933;DHT22;13731;51.166;4.474;2023-12-07T12:50:13;7.00;1.00
25933;DHT22;13731;51.166;4.474;2023-12-07T12:53:02;6.90;1.00
25933;DHT22;13731;51.166;4.474;2023-12-07T12:55:47;7.10;1.00
25933;DHT22;13731;51.166;4.474;2023-12-07T12:58:14;6.90;1.00
25933;DHT22;13731;51.166;4.474;2023-12-07T13:00:42;6.80;1.00
25933;DHT22;13731;51.166;4.474;2023-12-07T13:03:10;6.80;1.00
25933;DHT22;13731;51.166;4.474;2023-12-07T13:05:38;6.90;15.40
25933;DHT22;13731;51.166;4.474;2023-12-07T13:08:04;7.00;1.00
25933;DHT22;13731;51.166;4.474;2023-12-07T13:10:30;7.20;1.00
25933;DHT22;13731;51.166;4.474;2023-12-07T13:12:57;7.10;1.00
25933;DHT22;13731;51.166;4.474;2023-12-07T13:15:23;7.10;1.00
25933;DHT22;13731;51.166;4.474;2023-12-07T13:17:50;7.10;1.00
25933;DHT22;13731;51.166;4.474;2023-12-07T13:20:16;7.20;1.00
25933;DHT22;13731;51.166;4.474;2023-12-07T13:22:42;7.00;1.00
25933;DHT22;13731;51.166;4.474;2023-12-07T13:25:12;6.90;1.00
25933;DHT22;13731;51.166;4.474;2023-12-07T13:27:41;7.10;1.00
25933;DHT22;13731;51.166;4.474;2023-12-07T13:30:09;7.20;1.00
25933;DHT22;13731;51.166;4.474;2023-12-07T13:32:35;7.10;1.00
25933;DHT22;13731;51.166;4.474;2023-12-07T13:35:06;7.00;1.00
25933;DHT22;13731;51.166;4.474;2023-12-07T13:37:34;7.00;1.00
25933;DHT22;13731;51.166;4.474;2023-12-07T13:40:00;6.90;1.00
25933;DHT22;13731;51.166;4.474;2023-12-07T13:42:29;7.00;1.00
25933;DHT22;13731;51.166;4.474;2023-12-07T13:44:57;6.80;1.00
25933;DHT22;13731;51.166;4.474;2023-12-07T13:47:24;6.60;1.00
25933;DHT22;13731;51.166;4.474;2023-12-07T13:49:56;6.70;5.10
25933;DHT22;13731;51.166;4.474;2023-12-07T13:52:22;6.80;1.00
25933;DHT22;13731;51.166;4.474;2023-12-07T13:54:48;6.40;1.00
25933;DHT22;13731;51.166;4.474;2023-12-07T13:57:15;6.30;59.50
25933;DHT22;13731;51.166;4.474;2023-12-07T13:59:41;6.30;99.90
25933;DHT22;13731;51.166;4.474;2023-12-07T14:02:07;6.40;99.90
25933;DHT22;13731;51.166;4.474;2023-12-07T14:04:33;6.40;96.20
25933;DHT22;13731;51.166;4.474;2023-12-07T14:07:14;6.50;80.10
25933;DHT22;13731;51.166;4.474;2023-12-07T14:09:42;6.50;58.40
25933;DHT22;13731;51.166;4.474;2023-12-07T14:12:09;6.50;6.80
25933;DHT22;13731;51.166;4.474;2023-12-07T14:14:45;6.60;8.60
25933;DHT22;13731;51.166;4.474;2023-12-07T14:17:13;6.50;1.00
25933;DHT22;13731;51.166;4.474;2023-12-07T14:19:39;6.40;1.00
25933;DHT22;13731;51.166;4.474;2023-12-07T14:22:06;6.10;36.30
25933;DHT22;13731;51.166;4.474;2023-12-07T14:24:36;5.90;99.90
25933;DHT22;13731;51.166;4.474;2023-12-07T14:27:06;6.10;99.90
25933;DHT22;13731;51.166;4.474;2023-12-07T14:29:33;6.10;99.90
25933;DHT22;13731;51.166;4.474;2023-12-07T14:31:59;6.10;99.90
25933;DHT22;13731;51.166;4.474;2023-12-07T14:34:25;6.20;99.90
25933;DHT22;13731;51.166;4.474;2023-12-07T14:36:53;6.10;99.90
25933;DHT22;13731;51.166;4.474;2023-12-07T14:39:19;6.00;84.70
25933;DHT22;13731;51.166;4.474;2023-12-07T14:41:46;6.00;99.90
25933;DHT22;13731;51.166;4.474;2023-12-07T14:44:17;6.00;99.90
25933;DHT22;13731;51.166;4.474;2023-12-07T14:46:47;5.90;99.90
25933;DHT22;13731;51.166;4.474;2023-12-07T14:49:17;5.80;99.90
25933;DHT22;13731;51.166;4.474;2023-12-07T14:51:50;5.70;99.90
25933;DHT22;13731;51.166;4.474;2023-12-07T14:54:16;5.60;99.90
25933;DHT22;13731;51.166;4.474;2023-12-07T14:56:43;5.60;99.90
25933;DHT22;13731;51.166;4.474;2023-12-07T14:59:13;5.50;99.90
25933;DHT22;13731;51.166;4.474;2023-12-07T15:01:39;5.60;99.90
25933;DHT22;13731;51.166;4.474;2023-12-07T15:04:06;5.60;99.90
25933;DHT22;13731;51.166;4.474;2023-12-07T15:06:32;5.50;99.90
25933;DHT22;13731;51.166;4.474;2023-12-07T15:09:02;5.50;99.90
25933;DHT22;13731;51.166;4.474;2023-12-07T15:11:33;5.40;99.90
25933;DHT22;13731;51.166;4.474;2023-12-07T15:13:59;5.40;99.90
25933;DHT22;13731;51.166;4.474;2023-12-07T15:16:25;5.40;99.90
25933;DHT22;13731;51.166;4.474;2023-12-07T15:18:52;5.30;99.90
25933;DHT22;13731;51.166;4.474;2023-12-07T15:21:18;5.40;1.00
25933;DHT22;13731;51.166;4.474;2023-12-07T15:23:45;5.30;99.90
25933;DHT22;13731;51.166;4.474;2023-12-07T15:26:11;5.20;1.00
25933;DHT22;13731;51.166;4.474;2023-12-07T15:28:39;5.20;1.00
25933;DHT22;13731;51.166;4.474;2023-12-07T15:31:06;5.10;1.00
25933;DHT22;13731;51.166;4.474;2023-12-07T15:33:33;5.00;1.00
25933;DHT22;13731;51.166;4.474;2023-12-07T15:36:01;5.00;1.00
25933;DHT22;13731;51.166;4.474;2023-12-07T15:38:29;5.00;1.00
25933;DHT22;13731;51.166;4.474;2023-12-07T15:40:56;5.00;1.00
25933;DHT22;13731;51.166;4.474;2023-12-07T15:43:26;5.00;1.00
25933;DHT22;13731;51.166;4.474;2023-12-07T15:45:52;5.00;1.00
25933;DHT22;13731;51.166;4.474;2023-12-07T15:48:19;5.00;1.00
25933;DHT22;13731;51.166;4.474;2023-12-07T15:50:49;5.00;1.00
25933;DHT22;13731;51.166;4.474;2023-12-07T15:53:15;4.90;1.00
25933;DHT22;13731;51.166;4.474;2023-12-07T15:55:41;4.90;1.00
25933;DHT22;13731;51.166;4.474;2023-12-07T15:58:07;5.00;1.00